»·PEaware :: N520MJ KSBA-KMYF

N520MJ :: KSBA-KMYF

FLIGHT INFORMATION

Flight Status: Arrived
Operator: Privately registered:
United States
More flights under this callsign
Pilot: Manuel P. (9695)
Aircraft: BOMBARDIER BD-100 CHALLENGER 300
(CL30)
More flights by this aircraft type
Origin: KSBA Santa Barbara Mun
United States
Destination: KMYF Montgomery
United States
More flights between these airports :: More routes between these airports
Route: +KWANG VTU V208 SXC V208 LAX118R CARDI MZB320R MZB
File this flight plan on PilotEdge
Remarks: SBAN29 TEC ROUTE
Altitude:
(Current/Filed)
11,000ft
Speed:
(Current/Filed)
400kts
Departed: 12-Aug-17 03:12 PM
Arrived: 12-Aug-17 03:53 PM
Distance/Time
Traveled:
166nm/0:41
Distance/Time
To Go:
Arrived

Flight Plot

Page will automatically refresh every two minutes.


Map Options




Map Legend


Flown Route
Filed Route
Departure Airport
Arrival Airport
Navaid (VOR, NDB)
Fix

Horizontal Profiles

Position Reports

Time Latitude Longitude Heading Altitude Ground
Speed
12-Aug-17 14:47 34.422603 -119.835579 340 20ft 0kts
12-Aug-17 14:48 34.422603 -119.835579 340 20ft 0kts
12-Aug-17 14:50 34.422603 -119.835579 340 20ft 0kts
12-Aug-17 14:51 34.422603 -119.835579 340 20ft 0kts
12-Aug-17 14:52 34.422603 -119.835579 340 20ft 0kts
12-Aug-17 14:53 34.422603 -119.835579 340 20ft 0kts
12-Aug-17 14:54 34.422603 -119.835579 340 20ft 0kts
12-Aug-17 14:55 34.422603 -119.835579 340 20ft 0kts
12-Aug-17 14:56 34.422603 -119.835579 340 20ft 0kts
12-Aug-17 14:57 34.422603 -119.835579 340 20ft 0kts
12-Aug-17 14:58 34.422603 -119.835579 340 20ft 0kts
12-Aug-17 14:59 34.422603 -119.835579 340 20ft 0kts
12-Aug-17 15:00 34.422603 -119.835579 340 20ft 0kts
12-Aug-17 15:01 34.422603 -119.835579 340 20ft 0kts
12-Aug-17 15:02 34.422603 -119.835579 340 20ft 0kts
12-Aug-17 15:03 34.422603 -119.835579 340 20ft 0kts
12-Aug-17 15:04 34.422603 -119.835579 340 20ft 0kts
12-Aug-17 15:05 34.422603 -119.835579 340 20ft 0kts
12-Aug-17 15:06 34.422603 -119.835579 340 20ft 0kts
12-Aug-17 15:07 34.422603 -119.835579 340 20ft 0kts
12-Aug-17 15:08 34.422603 -119.835579 340 20ft 0kts
12-Aug-17 15:09 34.422678 -119.835575 17 20ft 1kts
12-Aug-17 15:10 34.422437 -119.836227 275 20ft 6kts
12-Aug-17 15:11 34.423758 -119.837456 348 20ft 10kts
12-Aug-17 15:12 34.426706 -119.837948 76 19ft 7kts
12-Aug-17 15:13 34.426979 -119.834612 10 19ft 1kts
12-Aug-17 15:14 34.427854 -119.835734 268 19ft 14kts
12-Aug-17 15:15 34.427177 -119.882387 268 1911ft 211kts
12-Aug-17 15:16 34.425739 -119.959891 268 2980ft 226kts
12-Aug-17 15:17 34.381666 -119.985242 152 4662ft 261kts
12-Aug-17 15:18 34.315107 -119.938104 135 7965ft 312kts
12-Aug-17 15:19 34.307410 -119.838625 96 7964ft 290kts
12-Aug-17 15:20 34.263429 -119.755654 127 10904ft 298kts
12-Aug-17 15:21 34.209715 -119.666378 127 11010ft 383kts
12-Aug-17 15:22 34.147166 -119.565635 129 10986ft 376kts
12-Aug-17 15:23 34.081698 -119.467070 129 10985ft 375kts
12-Aug-17 15:24 34.017920 -119.371265 129 10984ft 360kts
12-Aug-17 15:25 33.958302 -119.281978 130 11008ft 360kts
12-Aug-17 15:26 33.896509 -119.189676 130 11004ft 365kts
12-Aug-17 15:27 33.833377 -119.095566 130 11024ft 366kts
12-Aug-17 15:28 33.768698 -118.999458 129 11004ft 363kts
12-Aug-17 15:29 33.706077 -118.906623 130 10986ft 358kts
12-Aug-17 15:30 33.643299 -118.813817 130 10986ft 360kts
12-Aug-17 15:31 33.579454 -118.719693 130 11008ft 370kts
12-Aug-17 15:32 33.517663 -118.628777 130 10973ft 351kts
12-Aug-17 15:33 33.456831 -118.539520 130 10949ft 342kts
12-Aug-17 15:34 33.396649 -118.449092 129 10955ft 362kts
12-Aug-17 15:35 33.350852 -118.346218 102 10982ft 360kts
12-Aug-17 15:36 33.328689 -118.231133 105 10979ft 364kts
12-Aug-17 15:37 33.302039 -118.112403 106 10947ft 368kts
12-Aug-17 15:38 33.274764 -117.996052 106 10948ft 361kts
12-Aug-17 15:39 33.248688 -117.886332 107 10981ft 311kts
12-Aug-17 15:40 33.226149 -117.792280 106 11017ft 312kts
12-Aug-17 15:41 33.201892 -117.691489 107 10998ft 324kts
12-Aug-17 15:42 33.176347 -117.585756 106 10996ft 330kts
12-Aug-17 15:43 33.150211 -117.478023 106 10985ft 339kts
12-Aug-17 15:44 33.095824 -117.406425 152 8932ft 274kts
12-Aug-17 15:45 33.027974 -117.363569 153 6990ft 278kts
12-Aug-17 15:46 32.959353 -117.320261 153 6979ft 287kts
12-Aug-17 15:47 32.890187 -117.279821 154 6999ft 281kts
12-Aug-17 15:48 32.821410 -117.235806 135 6959ft 287kts
12-Aug-17 15:49 32.800712 -117.145798 101 6976ft 282kts
12-Aug-17 15:50 32.772818 -117.065929 125 5117ft 251kts
12-Aug-17 15:51 32.737675 -117.000796 86 3292ft 226kts
12-Aug-17 15:52 32.768516 -117.005080 275 1912ft 149kts
12-Aug-17 15:53 32.781101 -117.051538 293 2534ft 151kts
12-Aug-17 15:54 32.797970 -117.093214 293 1391ft 131kts
12-Aug-17 15:55 32.813148 -117.131881 289 484ft 130kts
12-Aug-17 15:56 32.817940 -117.144329 285 432ft 8kts
12-Aug-17 15:57 32.816003 -117.145007 113 433ft 12kts
12-Aug-17 15:58 32.814605 -117.141452 116 432ft 12kts
12-Aug-17 15:59 32.814578 -117.141390 116 432ft 12kts

Navigation Log

Ident Type
1. KSBA Airport
2. KWANG Fix
3. VTU Navaid
4. WEEZL Fix
5. SXC Navaid
6. CARDI Fix
7. MZB Navaid
8. KMYF Airport